createdAt,value
2023-10-09T00:01:27.941Z,16.67
2023-10-09T00:03:55.644Z,16.54
2023-10-09T00:06:38.222Z,13.64
2023-10-09T00:09:40.979Z,16.02
2023-10-09T00:12:11.532Z,16.37
2023-10-09T00:14:41.393Z,16.47
2023-10-09T00:17:13.733Z,16.45
2023-10-09T00:19:40.411Z,16.48
2023-10-09T00:22:27.434Z,15.61
2023-10-09T00:25:11.013Z,15.66
2023-10-09T00:27:45.653Z,16.33
2023-10-09T00:30:30.692Z,16.39
2023-10-09T00:33:05.085Z,16.43
2023-10-09T00:35:37.979Z,16.41
2023-10-09T00:38:15.534Z,16.48
2023-10-09T00:40:48.371Z,14.31
2023-10-09T00:43:15.165Z,16.05
2023-10-09T00:45:45.804Z,16.31
2023-10-09T00:48:16.792Z,16.38
2023-10-09T00:50:54.023Z,16.41
2023-10-09T00:53:31.637Z,16.28
2023-10-09T00:56:00.329Z,16.00
2023-10-09T00:58:32.198Z,16.23
2023-10-09T01:01:00.686Z,12.78
2023-10-09T01:03:28.492Z,15.45
2023-10-09T01:06:00.141Z,16.02
2023-10-09T01:08:42.562Z,16.10
2023-10-09T01:11:19.348Z,16.21
2023-10-09T01:13:47.610Z,16.24
2023-10-09T01:16:19.035Z,16.20
2023-10-09T01:18:48.208Z,16.10
2023-10-09T01:21:16.162Z,16.23
2023-10-09T01:24:04.982Z,16.17
2023-10-09T01:26:40.716Z,16.21
2023-10-09T01:29:12.017Z,16.08
2023-10-09T01:31:44.750Z,16.18
2023-10-09T01:34:13.937Z,16.19
2023-10-09T01:36:40.788Z,14.36
2023-10-09T01:39:24.394Z,15.07
2023-10-09T01:41:53.203Z,15.63
2023-10-09T01:44:20.120Z,15.94
2023-10-09T01:46:49.824Z,15.93
2023-10-09T01:49:22.618Z,14.86
2023-10-09T01:51:51.613Z,15.80
2023-10-09T01:54:34.666Z,15.97
2023-10-09T01:57:06.662Z,15.51
2023-10-09T01:59:34.090Z,15.95
2023-10-09T02:02:06.993Z,15.99
2023-10-09T02:04:33.796Z,16.00
2023-10-09T02:07:00.697Z,15.94
2023-10-09T02:09:32.683Z,15.99
2023-10-09T02:11:59.418Z,16.00
2023-10-09T02:14:26.304Z,16.00
2023-10-09T02:17:09.124Z,13.85
2023-10-09T02:19:35.903Z,15.37
2023-10-09T02:22:13.719Z,15.67
2023-10-09T02:24:58.900Z,15.79
2023-10-09T02:27:42.240Z,15.77
2023-10-09T02:30:16.593Z,15.81
2023-10-09T02:32:44.413Z,13.93
2023-10-09T02:35:29.275Z,15.47
2023-10-09T02:37:59.040Z,15.29
2023-10-09T02:40:34.586Z,15.66
2023-10-09T02:43:01.594Z,15.77
2023-10-09T02:45:36.034Z,15.32
2023-10-09T02:48:11.942Z,13.41
2023-10-09T02:50:40.024Z,14.03
2023-10-09T02:53:10.952Z,15.40
2023-10-09T02:55:40.015Z,14.49
2023-10-09T02:58:08.507Z,14.42
2023-10-09T03:00:37.436Z,15.22
2023-10-09T03:03:07.515Z,15.22
2023-10-09T03:05:34.609Z,15.53
2023-10-09T03:08:01.428Z,15.57
2023-10-09T03:10:28.122Z,15.62
2023-10-09T03:12:56.897Z,15.60
2023-10-09T03:15:23.730Z,15.53
2023-10-09T03:17:50.459Z,15.58
2023-10-09T03:20:18.692Z,15.42
2023-10-09T03:22:46.590Z,15.51
2023-10-09T03:25:15.541Z,15.31
2023-10-09T03:27:51.612Z,15.22
2023-10-09T03:30:25.902Z,15.51
2023-10-09T03:32:53.898Z,15.05
2023-10-09T03:35:28.459Z,14.19
2023-10-09T03:38:12.701Z,15.15
2023-10-09T03:40:43.556Z,15.33
2023-10-09T03:43:11.849Z,15.34
2023-10-09T03:45:46.434Z,14.63
2023-10-09T03:48:21.867Z,15.23
2023-10-09T03:50:49.825Z,15.35
2023-10-09T03:53:17.288Z,15.30
2023-10-09T03:55:43.925Z,14.76
2023-10-09T03:58:14.785Z,14.11
2023-10-09T04:00:47.004Z,15.20
2023-10-09T04:03:16.324Z,15.28
2023-10-09T04:05:46.520Z,14.86
2023-10-09T04:08:30.486Z,15.24
2023-10-09T04:11:03.928Z,15.30
2023-10-09T04:13:35.905Z,14.95
2023-10-09T04:16:23.139Z,12.10
2023-10-09T04:18:50.587Z,12.43
2023-10-09T04:21:20.269Z,11.10
2023-10-09T04:24:06.328Z,14.59
2023-10-09T04:26:35.958Z,15.00
2023-10-09T04:29:03.334Z,15.10
2023-10-09T04:31:35.771Z,15.09
2023-10-09T04:34:23.226Z,15.09
2023-10-09T04:36:58.120Z,15.08
2023-10-09T04:39:30.518Z,14.82
2023-10-09T04:42:20.735Z,14.86
2023-10-09T04:45:03.800Z,14.92
2023-10-09T04:47:59.952Z,15.10
2023-10-09T04:50:32.588Z,14.44
2023-10-09T04:53:19.211Z,15.02
2023-10-09T04:55:55.348Z,13.95
2023-10-09T04:58:26.193Z,14.88
2023-10-09T05:01:00.276Z,12.72
2023-10-09T05:03:44.469Z,14.63
2023-10-09T05:06:30.948Z,14.21
2023-10-09T05:09:08.886Z,14.72
2023-10-09T05:11:54.083Z,14.93
2023-10-09T05:14:39.992Z,14.89
2023-10-09T05:17:07.849Z,13.89
2023-10-09T05:19:54.843Z,14.72
2023-10-09T05:22:37.431Z,14.85
2023-10-09T05:25:16.001Z,14.90
2023-10-09T05:27:47.052Z,14.86
2023-10-09T05:30:26.149Z,14.86
2023-10-09T05:32:59.986Z,14.89
2023-10-09T05:35:40.629Z,14.91
2023-10-09T05:38:26.144Z,14.95
2023-10-09T05:41:06.036Z,14.38
2023-10-09T05:43:51.403Z,14.84
2023-10-09T05:46:18.146Z,13.52
2023-10-09T05:48:44.828Z,13.84
2023-10-09T05:51:35.880Z,12.61
2023-10-09T05:54:25.779Z,11.86
2023-10-09T05:57:21.751Z,11.95
2023-10-09T06:00:07.110Z,12.94
2023-10-09T06:03:02.640Z,14.36
2023-10-09T06:05:41.690Z,14.57
2023-10-09T06:08:13.943Z,14.62
2023-10-09T06:10:41.965Z,12.78
2023-10-09T06:13:27.688Z,14.28
2023-10-09T06:16:10.922Z,14.55
2023-10-09T06:18:44.533Z,14.55
2023-10-09T06:21:31.631Z,14.57
2023-10-09T06:24:18.990Z,14.62
2023-10-09T06:26:59.275Z,14.62
2023-10-09T06:29:44.746Z,14.59
2023-10-09T06:32:27.483Z,14.58
2023-10-09T06:35:16.184Z,14.38
2023-10-09T06:38:01.651Z,14.57
2023-10-09T06:40:48.708Z,14.75
2023-10-09T06:43:18.647Z,14.66
2023-10-09T06:45:45.637Z,14.58
2023-10-09T06:48:31.653Z,14.80
2023-10-09T06:51:17.233Z,14.88
2023-10-09T06:53:55.977Z,15.04
2023-10-09T06:56:48.892Z,14.77
2023-10-09T06:59:25.631Z,14.80
2023-10-09T07:02:11.543Z,14.81
2023-10-09T07:04:38.999Z,14.97
2023-10-09T07:07:11.277Z,14.78
2023-10-09T07:09:44.433Z,14.82
2023-10-09T07:12:21.759Z,15.11
2023-10-09T07:14:48.539Z,15.12
2023-10-09T07:17:24.600Z,16.06
2023-10-09T07:19:52.606Z,15.48
2023-10-09T07:22:22.412Z,15.34
2023-10-09T07:24:51.130Z,15.26
2023-10-09T07:27:40.403Z,15.93
2023-10-09T07:30:28.187Z,16.61
2023-10-09T07:32:55.785Z,16.03
2023-10-09T07:35:41.090Z,16.10
2023-10-09T07:38:10.675Z,18.37
2023-10-09T07:40:56.104Z,18.78
2023-10-09T07:43:30.040Z,17.62
2023-10-09T07:46:00.097Z,18.66
2023-10-09T07:48:27.239Z,17.84
2023-10-09T07:50:58.904Z,17.96
2023-10-09T07:53:28.411Z,17.31
2023-10-09T07:55:56.544Z,19.52
2023-10-09T07:58:26.336Z,18.96
2023-10-09T08:00:59.665Z,19.66
2023-10-09T08:03:26.867Z,19.92
2023-10-09T08:05:55.103Z,18.98
2023-10-09T08:08:40.750Z,18.69
2023-10-09T08:11:28.653Z,17.99
2023-10-09T08:13:56.850Z,18.20
2023-10-09T08:16:27.065Z,17.43
2023-10-09T08:18:58.397Z,17.76
2023-10-09T08:21:43.268Z,18.55
2023-10-09T08:24:30.133Z,20.95
2023-10-09T08:27:16.888Z,21.37
2023-10-09T08:29:48.004Z,17.87
2023-10-09T08:34:15.343Z,19.62
2023-10-09T08:35:20.313Z,19.53
2023-10-09T08:37:49.809Z,19.05
2023-10-09T08:40:21.694Z,19.11
2023-10-09T08:42:54.331Z,17.40
2023-10-09T08:45:25.922Z,19.24
2023-10-09T08:47:55.180Z,23.48
2023-10-09T08:50:22.475Z,17.84
2023-10-09T08:52:51.080Z,21.50
2023-10-09T08:55:18.218Z,24.21
2023-10-09T08:57:47.459Z,26.09
2023-10-09T09:00:22.476Z,27.30
2023-10-09T09:02:51.443Z,27.76
2023-10-09T09:05:19.715Z,26.54
2023-10-09T09:07:46.612Z,26.37
2023-10-09T09:10:19.352Z,26.19
2023-10-09T09:12:46.416Z,24.92
2023-10-09T09:15:21.252Z,26.01
2023-10-09T09:17:50.180Z,24.82
2023-10-09T09:20:31.668Z,21.87
2023-10-09T09:22:58.905Z,22.87
2023-10-09T09:25:44.652Z,22.06
2023-10-09T09:28:13.819Z,21.04
2023-10-09T09:30:42.144Z,20.67
2023-10-09T09:33:21.889Z,21.23
2023-10-09T09:36:00.657Z,20.73
2023-10-09T09:38:28.978Z,18.15
2023-10-09T09:40:58.080Z,18.51
2023-10-09T09:43:26.880Z,20.36
2023-10-09T09:45:54.770Z,18.72
2023-10-09T09:48:24.852Z,19.99
2023-10-09T09:50:55.370Z,18.92
2023-10-09T09:53:25.034Z,21.25
2023-10-09T09:55:59.308Z,21.64
2023-10-09T09:58:28.608Z,18.54
2023-10-09T10:01:02.394Z,20.02
2023-10-09T10:03:34.441Z,19.87
2023-10-09T10:06:07.160Z,22.17
2023-10-09T10:08:35.684Z,22.26
2023-10-09T10:11:15.070Z,19.58
2023-10-09T10:14:09.015Z,18.97
2023-10-09T10:17:04.201Z,20.55
2023-10-09T10:20:19.630Z,22.78
2023-10-09T10:22:49.596Z,20.35
2023-10-09T10:25:42.336Z,19.72
2023-10-09T10:28:40.570Z,21.87
2023-10-09T10:31:11.203Z,19.54
2023-10-09T10:34:08.641Z,21.15
2023-10-09T10:36:35.874Z,20.60
2023-10-09T10:39:06.637Z,22.99
2023-10-09T10:41:37.671Z,22.69
2023-10-09T10:44:32.559Z,20.92
2023-10-09T10:46:59.464Z,18.80
2023-10-09T10:49:37.534Z,23.17
2023-10-09T10:52:19.937Z,21.14
2023-10-09T10:54:47.194Z,26.12
2023-10-09T10:57:31.632Z,22.83
2023-10-09T11:00:07.255Z,25.65
2023-10-09T11:02:38.682Z,22.92
2023-10-09T11:05:16.074Z,25.26
2023-10-09T11:07:43.612Z,24.33
2023-10-09T11:10:11.835Z,25.58
2023-10-09T11:13:06.691Z,25.13
2023-10-09T11:15:46.538Z,24.88
2023-10-09T11:18:20.582Z,24.95
2023-10-09T11:21:16.721Z,25.58
2023-10-09T11:23:53.251Z,25.84
2023-10-09T11:26:30.221Z,24.84
2023-10-09T11:29:26.923Z,26.21
2023-10-09T11:32:01.906Z,26.00
2023-10-09T11:34:39.058Z,26.29
2023-10-09T11:37:16.757Z,25.67
2023-10-09T11:39:55.898Z,26.15
2023-10-09T11:42:38.856Z,26.74
2023-10-09T11:45:20.677Z,25.29
2023-10-09T11:47:58.304Z,23.17
2023-10-09T11:50:44.080Z,24.61
2023-10-09T11:53:23.641Z,24.79
2023-10-09T11:55:51.226Z,24.44
2023-10-09T11:58:24.405Z,23.71
2023-10-09T12:00:57.856Z,21.77
2023-10-09T12:03:29.456Z,24.10
2023-10-09T12:05:57.448Z,23.52
2023-10-09T12:08:27.637Z,23.82
2023-10-09T12:10:57.519Z,22.16
2023-10-09T12:13:24.322Z,24.57
2023-10-09T12:15:53.645Z,23.91
2023-10-09T12:18:22.939Z,24.66
2023-10-09T12:20:52.615Z,23.92
2023-10-09T12:23:20.238Z,24.48
2023-10-09T12:25:49.005Z,24.34
2023-10-09T12:28:15.703Z,24.45
2023-10-09T12:30:42.815Z,24.33
2023-10-09T12:33:10.565Z,23.30
2023-10-09T12:35:39.616Z,24.19
2023-10-09T12:38:09.938Z,23.90
2023-10-09T12:40:37.305Z,23.88
2023-10-09T12:43:04.623Z,22.73
2023-10-09T12:45:35.026Z,23.26
2023-10-09T12:48:04.546Z,23.50
2023-10-09T12:50:34.869Z,23.56
2023-10-09T12:53:03.441Z,22.82
2023-10-09T12:55:33.136Z,22.37
2023-10-09T12:58:07.408Z,22.31
2023-10-09T13:00:38.239Z,21.80
2023-10-09T13:03:17.426Z,22.77
2023-10-09T13:05:57.319Z,22.58
2023-10-09T13:08:33.037Z,22.66
2023-10-09T13:11:11.562Z,22.63
2023-10-09T13:13:47.741Z,22.61
2023-10-09T13:16:25.524Z,22.66
2023-10-09T13:18:53.974Z,21.62
2023-10-09T13:21:21.842Z,22.37
2023-10-09T13:23:51.106Z,22.15
2023-10-09T13:26:33.121Z,22.21
2023-10-09T13:29:02.805Z,21.92
2023-10-09T13:31:33.272Z,21.65
2023-10-09T13:34:02.289Z,21.98
2023-10-09T13:36:32.277Z,22.00
2023-10-09T13:39:23.521Z,21.58
2023-10-09T13:41:51.303Z,21.68
2023-10-09T13:44:18.085Z,21.24
2023-10-09T13:46:45.435Z,21.10
2023-10-09T13:49:15.710Z,20.88
2023-10-09T13:51:45.853Z,20.88
2023-10-09T13:54:29.804Z,21.10
2023-10-09T13:56:56.595Z,20.65
2023-10-09T13:59:26.081Z,21.12
2023-10-09T14:01:56.035Z,21.05
2023-10-09T14:04:24.142Z,20.88
2023-10-09T14:06:58.131Z,20.85
2023-10-09T14:09:39.021Z,20.67
2023-10-09T14:12:07.906Z,20.52
2023-10-09T14:14:35.811Z,20.55
2023-10-09T14:17:02.572Z,20.64
2023-10-09T14:19:34.300Z,20.98
2023-10-09T14:22:00.997Z,21.15
2023-10-09T14:24:34.037Z,20.58
2023-10-09T14:27:00.821Z,20.49
2023-10-09T14:29:27.996Z,20.49
2023-10-09T14:32:01.642Z,20.40
2023-10-09T14:34:36.950Z,20.50
2023-10-09T14:37:04.396Z,20.34
2023-10-09T14:39:37.877Z,20.54
2023-10-09T14:42:10.631Z,20.35
2023-10-09T14:44:40.020Z,20.33
2023-10-09T14:47:06.774Z,20.25
2023-10-09T14:49:38.522Z,20.17
2023-10-09T14:52:09.547Z,20.30
2023-10-09T14:54:39.227Z,20.33
2023-10-09T14:57:07.193Z,20.17
2023-10-09T14:59:34.261Z,20.15
2023-10-09T15:02:01.059Z,20.29
2023-10-09T15:04:27.916Z,20.29
2023-10-09T15:06:54.603Z,20.16
2023-10-09T15:09:24.419Z,20.18
2023-10-09T15:11:53.195Z,20.06
2023-10-09T15:14:19.970Z,20.04
2023-10-09T15:16:47.758Z,20.15
2023-10-09T15:19:15.590Z,20.11
2023-10-09T15:21:45.317Z,20.12
2023-10-09T15:24:20.548Z,20.18
2023-10-09T15:26:53.510Z,20.13
2023-10-09T15:29:29.018Z,20.23
2023-10-09T15:31:56.060Z,20.03
2023-10-09T15:34:22.963Z,19.64
2023-10-09T15:36:49.584Z,19.89
2023-10-09T15:39:20.271Z,19.39
2023-10-09T15:41:47.168Z,19.87
2023-10-09T15:44:17.840Z,19.71
2023-10-09T15:46:49.048Z,19.91
2023-10-09T15:49:16.466Z,20.03
2023-10-09T15:51:48.271Z,20.07
2023-10-09T15:54:17.561Z,19.99
2023-10-09T15:56:49.100Z,19.96
2023-10-09T15:59:25.421Z,19.94
2023-10-09T16:01:54.326Z,20.01
2023-10-09T16:04:21.070Z,19.99
2023-10-09T16:06:47.742Z,20.03
2023-10-09T16:09:16.377Z,19.94
2023-10-09T16:11:43.034Z,19.95
2023-10-09T16:14:11.040Z,20.10
2023-10-09T16:16:43.173Z,20.01
2023-10-09T16:19:11.908Z,19.95
2023-10-09T16:21:39.680Z,20.07
2023-10-09T16:24:07.309Z,20.06
2023-10-09T16:26:56.303Z,19.81
2023-10-09T16:29:23.655Z,19.59
2023-10-09T16:31:50.484Z,18.81
2023-10-09T16:34:18.538Z,19.29
2023-10-09T16:36:46.419Z,19.76
2023-10-09T16:39:25.429Z,19.85
2023-10-09T16:41:54.573Z,19.86
2023-10-09T16:44:21.240Z,19.82
2023-10-09T16:46:48.700Z,19.86
2023-10-09T16:49:15.614Z,19.86
2023-10-09T16:51:47.509Z,19.86
2023-10-09T16:54:16.619Z,19.87
2023-10-09T16:56:43.942Z,19.86
2023-10-09T16:59:15.155Z,19.87
2023-10-09T17:01:42.198Z,19.86
2023-10-09T17:04:12.964Z,19.66
2023-10-09T17:06:40.174Z,19.65
2023-10-09T17:09:08.844Z,19.43
2023-10-09T17:11:37.719Z,19.76
2023-10-09T17:14:07.122Z,19.78
2023-10-09T17:16:33.887Z,19.76
2023-10-09T17:19:06.988Z,19.76
2023-10-09T17:21:37.904Z,19.75
2023-10-09T17:24:05.635Z,19.77
2023-10-09T17:26:35.023Z,19.78
2023-10-09T17:29:01.490Z,19.78
2023-10-09T17:31:28.257Z,19.78
2023-10-09T17:33:55.277Z,19.76
2023-10-09T17:36:22.900Z,19.78
2023-10-09T17:38:52.664Z,19.72
2023-10-09T17:41:21.108Z,19.84
2023-10-09T17:43:49.199Z,19.12
2023-10-09T17:46:15.883Z,18.38
2023-10-09T17:48:43.102Z,18.80
2023-10-09T17:51:09.906Z,19.12
2023-10-09T17:53:39.314Z,19.59
2023-10-09T17:56:06.538Z,19.69
2023-10-09T17:58:33.220Z,19.75
2023-10-09T18:01:06.299Z,18.97
2023-10-09T18:03:33.664Z,19.57
2023-10-09T18:06:01.025Z,19.66
2023-10-09T18:08:27.790Z,19.68
2023-10-09T18:10:58.535Z,19.67
2023-10-09T18:13:28.627Z,19.64
2023-10-09T18:16:13.539Z,19.64
2023-10-09T18:18:51.425Z,19.67
2023-10-09T18:21:20.702Z,19.70
2023-10-09T18:23:48.958Z,19.62
2023-10-09T18:26:15.892Z,19.68
2023-10-09T18:28:43.005Z,19.55
2023-10-09T18:31:14.973Z,19.68
2023-10-09T18:33:44.445Z,19.69
2023-10-09T18:36:12.507Z,17.95
2023-10-09T18:38:39.703Z,19.22
2023-10-09T18:41:07.019Z,19.54
2023-10-09T18:43:36.055Z,19.58
2023-10-09T18:46:05.010Z,19.56
2023-10-09T18:48:33.288Z,19.63
2023-10-09T18:51:01.716Z,19.58
2023-10-09T18:53:32.702Z,19.62
2023-10-09T18:56:01.546Z,19.54
2023-10-09T18:58:28.664Z,19.59
2023-10-09T19:01:07.480Z,19.22
2023-10-09T19:03:35.892Z,18.74
2023-10-09T19:06:09.223Z,19.43
2023-10-09T19:08:36.062Z,19.51
2023-10-09T19:11:10.626Z,19.20
2023-10-09T19:13:38.095Z,18.57
2023-10-09T19:16:06.069Z,19.25
2023-10-09T19:18:35.684Z,18.75
2023-10-09T19:21:09.331Z,17.51
2023-10-09T19:23:36.840Z,17.63
2023-10-09T19:26:04.596Z,17.45
2023-10-09T19:28:31.449Z,19.00
2023-10-09T19:31:05.370Z,18.74
2023-10-09T19:33:36.377Z,19.07
2023-10-09T19:36:12.209Z,18.94
2023-10-09T19:38:39.198Z,18.60
2023-10-09T19:41:06.942Z,19.23
2023-10-09T19:43:35.166Z,18.83
2023-10-09T19:46:02.986Z,19.20
2023-10-09T19:48:29.711Z,19.28
2023-10-09T19:50:59.732Z,19.27
2023-10-09T19:53:27.924Z,18.48
2023-10-09T19:55:58.361Z,19.13
2023-10-09T19:58:27.749Z,19.09
2023-10-09T20:00:54.447Z,19.23
2023-10-09T20:03:24.062Z,19.19
2023-10-09T20:05:51.724Z,19.19
2023-10-09T20:08:18.449Z,19.25
2023-10-09T20:10:47.648Z,19.19
2023-10-09T20:13:14.268Z,18.95
2023-10-09T20:15:43.212Z,19.13
2023-10-09T20:18:09.939Z,19.21
2023-10-09T20:20:40.143Z,19.19
2023-10-09T20:23:08.743Z,19.18
2023-10-09T20:25:35.427Z,19.17
2023-10-09T20:28:03.646Z,19.12
2023-10-09T20:30:30.705Z,19.18
2023-10-09T20:32:57.382Z,19.18
2023-10-09T20:35:27.784Z,19.08
2023-10-09T20:38:02.551Z,19.07
2023-10-09T20:40:32.633Z,19.15
2023-10-09T20:42:59.265Z,19.06
2023-10-09T20:45:27.258Z,19.07
2023-10-09T20:47:56.580Z,19.03
2023-10-09T20:50:23.438Z,18.96
2023-10-09T20:52:50.692Z,19.00
2023-10-09T20:55:20.839Z,19.05
2023-10-09T20:57:47.476Z,19.06
2023-10-09T21:00:20.340Z,18.19
2023-10-09T21:02:49.430Z,18.94
2023-10-09T21:05:16.714Z,18.64
2023-10-09T21:07:45.432Z,18.93
2023-10-09T21:10:14.945Z,18.98
2023-10-09T21:12:42.357Z,18.66
2023-10-09T21:15:10.755Z,18.18
2023-10-09T21:17:38.857Z,18.56
2023-10-09T21:20:10.806Z,18.94
2023-10-09T21:22:38.380Z,19.07
2023-10-09T21:25:06.445Z,19.00
2023-10-09T21:27:34.562Z,18.97
2023-10-09T21:30:02.170Z,19.04
2023-10-09T21:32:29.055Z,19.01
2023-10-09T21:34:55.828Z,19.10
2023-10-09T21:37:23.791Z,18.94
2023-10-09T21:39:52.889Z,19.05
2023-10-09T21:42:19.628Z,19.01
2023-10-09T21:44:47.580Z,19.09
2023-10-09T21:47:14.964Z,18.79
2023-10-09T21:49:42.214Z,18.85
2023-10-09T21:52:09.123Z,18.83
2023-10-09T21:54:38.546Z,18.85
2023-10-09T21:57:05.188Z,18.76
2023-10-09T21:59:31.854Z,18.92
2023-10-09T22:01:58.762Z,18.78
2023-10-09T22:04:26.906Z,18.89
2023-10-09T22:06:53.512Z,18.83
2023-10-09T22:09:20.120Z,18.76
2023-10-09T22:11:48.087Z,18.77
2023-10-09T22:14:14.952Z,18.75
2023-10-09T22:16:41.740Z,18.83
2023-10-09T22:19:14.858Z,18.70
2023-10-09T22:21:42.614Z,18.66
2023-10-09T22:24:18.987Z,18.06
2023-10-09T22:26:45.690Z,18.68
2023-10-09T22:29:14.779Z,18.76
2023-10-09T22:31:47.311Z,17.43
2023-10-09T22:34:14.193Z,17.76
2023-10-09T22:36:54.265Z,18.52
2023-10-09T22:39:22.386Z,18.62
2023-10-09T22:41:55.557Z,18.67
2023-10-09T22:44:25.357Z,17.28
2023-10-09T22:46:52.854Z,18.33
2023-10-09T22:49:19.902Z,18.60
2023-10-09T22:51:52.543Z,17.57
2023-10-09T22:54:24.558Z,18.41
2023-10-09T22:56:52.788Z,18.60
2023-10-09T22:59:27.346Z,18.65
2023-10-09T23:01:56.486Z,18.55
2023-10-09T23:04:44.354Z,18.66
2023-10-09T23:07:17.095Z,18.62
2023-10-09T23:09:51.396Z,18.72
2023-10-09T23:12:23.624Z,18.65
2023-10-09T23:14:51.810Z,18.68
2023-10-09T23:17:20.280Z,18.57
2023-10-09T23:19:57.008Z,18.53
2023-10-09T23:22:46.364Z,18.59
2023-10-09T23:25:18.795Z,18.53
2023-10-09T23:27:45.386Z,18.53
2023-10-09T23:30:19.975Z,18.67
2023-10-09T23:32:48.528Z,18.56
2023-10-09T23:35:20.604Z,17.66
2023-10-09T23:38:06.259Z,18.12
2023-10-09T23:40:40.671Z,18.40
2023-10-09T23:43:13.883Z,18.31
2023-10-09T23:45:41.590Z,16.09
2023-10-09T23:48:16.283Z,16.61
2023-10-09T23:50:45.171Z,18.09
2023-10-09T23:53:15.869Z,18.33
2023-10-09T23:55:43.946Z,18.35
2023-10-09T23:58:20.119Z,18.38
